Norwegian Epic — C6XP7 — position and weather

sailwx.info

Track history (hours):
 
Tides and Currents Weather Stations Pressure Air Temp Water Temp Dewpoint Dewpoint Depression Visibility Wind Speed Wind Dir Waves Ship Positions

Norwegian Epic

Last reported at 2015-Jul-06 02:34 UTC. Time now 2015-Jul-06 02:52 UTC.
Position N 41°16' E 005°32'.

Length 329 m; draft 9.1 m.

Type: Passenger vessel. MMSI: 311018500.

Date/timePositionNaut miles runAvg speedWind from/ knotsBaromVisibWave heightAir tempDewpointWater temp
2015-Jul-06 02:34N 41°16' E 005°32'1616.4
2015-Jul-06 01:34N 41°16' E 005°10'1816.4
2015-Jul-06 00:27N 41°16' E 004°46'1516.3
2015-Jul-05 23:31N 41°16' E 004°26'1516.0
2015-Jul-05 22:33N 41°16' E 004°06'1515.5
2015-Jul-05 21:33N 41°16' E 003°45'1515.3
2015-Jul-05 20:33N 41°16' E 003°24'1514.8
2015-Jul-05 19:33N 41°16' E 003°05'1514.9
2015-Jul-05 18:33N 41°16' E 002°45'1515.2
2015-Jul-05 17:33N 41°15' E 002°25'1211.9
2015-Jul-05 16:33N 41°19' E 002°10'2 1.8
2015-Jul-05 15:14N 41°22' E 002°11'0 0.0
2015-Jul-05 12:28N 41°22' E 002°11'0 0.0
2015-Jul-05 11:29N 41°22' E 002°11'0 0.0
2015-Jul-05 10:18N 41°22' E 002°11'0 0.0
2015-Jul-05 09:30N 41°22' E 002°11'0 0.0
2015-Jul-05 08:31N 41°22' E 002°11'0 0.0
2015-Jul-05 07:32N 41°22' E 002°11'0 0.0
2015-Jul-05 06:32N 41°22' E 002°11'0 0.0
2015-Jul-05 05:33N 41°22' E 002°11'0 0.0
2015-Jul-05 04:04N 41°22' E 002°11'0 0.0
2015-Jul-05 03:28N 41°22' E 002°11'0 0.0
2015-Jul-05 02:24N 41°22' E 002°11'4 4.6
2015-Jul-05 01:33N 41°18' E 002°11'1414.0
2015-Jul-05 00:33N 41°04' E 002°11'1515.3
2015-Jul-04 23:33N 40°49' E 002°12'1615.7
2015-Jul-04 22:33N 40°33' E 002°12'1616.1
2015-Jul-04 21:33N 40°17' E 002°13'1616.1
2015-Jul-04 20:33N 40°01' E 002°12'1616.3
2015-Jul-04 19:33N 39°44' E 002°13'1515.4
2015-Jul-04 18:33N 39°30' E 002°19'1312.8
2015-Jul-04 17:33N 39°28' E 002°35'6 6.1
2015-Jul-04 16:33N 39°33' E 002°38'0 0.0
2015-Jul-04 15:31N 39°33' E 002°38'0 0.0
2015-Jul-04 14:32N 39°33' E 002°38'0 0.0
2015-Jul-04 13:32N 39°33' E 002°38'0 0.0
2015-Jul-04 12:33N 39°33' E 002°38'0 0.0
2015-Jul-04 11:33N 39°33' E 002°38'8 8.1
2015-Jul-04 10:33N 39°26' E 002°34'1414.3
2015-Jul-04 09:33N 39°32' E 002°17'1514.6
2015-Jul-04 08:33N 39°45' E 002°23'1615.9
2015-Jul-04 07:33N 39°57' E 002°36'1616.4
2015-Jul-04 06:33N 40°10' E 002°51'1717.4
2015-Jul-04 05:33N 40°22' E 003°07'2019.8
2015-Jul-04 04:33N 40°36' E 003°25'2019.9
2015-Jul-04 03:33N 40°50' E 003°44'2019.8
2015-Jul-04 02:33N 41°04' E 004°03'1919.3
2015-Jul-04 01:33N 41°17' E 004°21'1919.3
2015-Jul-04 00:33N 41°31' E 004°39'1919.3
2015-Jul-03 23:33N 41°44' E 004°58'1918.8
2015-Jul-03 22:33N 41°57' E 005°15'1918.7
2015-Jul-03 21:33N 42°11' E 005°34'1918.7
2015-Jul-03 20:33N 42°24' E 005°51'1918.6
2015-Jul-03 19:33N 42°37' E 006°09'1918.8
2015-Jul-03 18:33N 42°50' E 006°27'1918.8
2015-Jul-03 17:33N 43°04' E 006°45'1818.5
2015-Jul-03 16:34N 43°20' E 006°57'1312.1
2015-Jul-03 15:31N 43°32' E 007°01'0 0.1
2015-Jul-03 14:32N 43°32' E 007°01'0 0.0
2015-Jul-03 13:32N 43°32' E 007°01'0 0.0
2015-Jul-03 12:27N 43°32' E 007°01'0 0.0
2015-Jul-03 11:30N 43°32' E 007°01'0 0.0
2015-Jul-03 10:31N 43°32' E 007°01'0 0.0
2015-Jul-03 09:29N 43°32' E 007°01'0 0.0
2015-Jul-03 08:26N 43°32' E 007°01'0 0.0
2015-Jul-03 07:30N 43°32' E 007°01'0 0.0
2015-Jul-03 06:31N 43°32' E 007°01'0 0.0
2015-Jul-03 05:31N 43°32' E 007°01'0 0.0
2015-Jul-03 04:33N 43°32' E 007°01'6 5.6
2015-Jul-03 03:33N 43°28' E 007°06'1312.9
2015-Jul-03 02:34N 43°28' E 007°24'1312.9
2015-Jul-03 01:33N 43°29' E 007°42'1312.9
2015-Jul-03 00:33N 43°29' E 007°59'1312.9
2015-Jul-02 23:33N 43°30' E 008°17'1312.6
2015-Jul-02 22:33N 43°31' E 008°35'1413.9
2015-Jul-02 21:34N 43°31' E 008°54'1615.5
2015-Jul-02 20:34N 43°31' E 009°15'1515.3
2015-Jul-02 19:34N 43°32' E 009°36'1515.0
2015-Jul-02 18:34N 43°31' E 009°57'1312.7
2015-Jul-02 17:33N 43°31' E 010°14'3 2.7
2015-Jul-02 16:31N 43°33' E 010°18'0 0.0
2015-Jul-02 15:31N 43°33' E 010°18'0 0.0
2015-Jul-02 14:29N 43°33' E 010°18'0 0.0
2015-Jul-02 13:33N 43°33' E 010°18'0 0.0
2015-Jul-02 12:33N 43°33' E 010°18'0 0.0
2015-Jul-02 11:31N 43°33' E 010°18'0 0.0
2015-Jul-02 10:31N 43°33' E 010°18'0 0.0
2015-Jul-02 09:32N 43°33' E 010°18'0 0.0
2015-Jul-02 08:33N 43°33' E 010°18'0 0.0
2015-Jul-02 07:33N 43°33' E 010°18'0 0.0
2015-Jul-02 06:31N 43°33' E 010°18'0 0.0
2015-Jul-02 05:32N 43°33' E 010°18'0 0.5
2015-Jul-02 04:33N 43°33' E 010°17'8 8.0
2015-Jul-02 03:34N 43°26' E 010°11'1615.9
2015-Jul-02 02:33N 43°11' E 010°05'1615.5
2015-Jul-02 01:33N 42°56' E 010°00'1615.6
2015-Jul-02 00:34N 42°41' E 009°55'1615.6
2015-Jul-01 23:34N 42°25' E 009°55'1413.7
2015-Jul-01 22:33N 42°14' E 010°07'1615.7
2015-Jul-01 21:32N 42°09' E 010°27'1515.7
2015-Jul-01 20:33N 42°04' E 010°47'1515.3
2015-Jul-01 19:33N 42°01' E 011°07'1615.5
2015-Jul-01 18:33N 42°02' E 011°27'1414.2
2015-Jul-01 17:33N 42°06' E 011°46'1 0.4
2015-Jul-01 15:33N 42°06' E 011°47'0 0.0
2015-Jul-01 13:25N 42°06' E 011°47'0 0.0
2015-Jul-01 12:26N 42°06' E 011°47'0 0.0
2015-Jul-01 11:33N 42°06' E 011°47'0 0.0
2015-Jul-01 10:33N 42°06' E 011°47'0 0.0
2015-Jul-01 09:31N 42°06' E 011°47'0 0.0
2015-Jul-01 08:31N 42°06' E 011°47'0 0.0
2015-Jul-01 07:29N 42°06' E 011°47'0 0.0
2015-Jul-01 05:33N 42°06' E 011°47'0 0.0
2015-Jul-01 04:19N 42°06' E 011°47'0 0.2
2015-Jul-01 03:30N 42°06' E 011°47'6 5.8
2015-Jul-01 02:32N 42°01' E 011°44'1817.1
2015-Jul-01 01:29N 41°45' E 011°56'1617.1
2015-Jul-01 00:34N 41°32' E 012°07'1716.8
2015-Jun-30 23:33N 41°17' E 012°18'1716.7
2015-Jun-30 22:33N 41°03' E 012°29'1616.3
2015-Jun-30 21:33N 40°51' E 012°44'1515.3
2015-Jun-30 20:34N 40°42' E 013°01'1615.5
2015-Jun-30 19:33N 40°41' E 013°21'1515.1
2015-Jun-30 18:32N 40°39' E 013°41'1514.9
2015-Jun-30 17:33N 40°38' E 014°00'1514.5
2015-Jun-30 16:34N 40°47' E 014°15'3 0.3
2015-Jun-30 04:29N 40°50' E 014°16'5 5.8
2015-Jun-30 03:33N 40°45' E 014°14'1414.4
2015-Jun-30 02:33N 40°38' E 013°57'1615.5
2015-Jun-30 01:33N 40°39' E 013°37'1615.7
2015-Jun-30 00:33N 40°41' E 013°16'1616.4
2015-Jun-29 23:34N 40°41' E 012°55'1716.7
2015-Jun-29 22:33N 40°45' E 012°33'1717.1
2015-Jun-29 21:33N 40°50' E 012°11'1916.7
2015-Jun-29 20:26N 40°54' E 011°47'1516.5
2015-Jun-29 19:33N 40°58' E 011°29'1616.3
2015-Jun-29 18:33N 41°02' E 011°08'1716.5
2015-Jun-29 17:33N 41°06' E 010°47'1616.4
2015-Jun-29 16:33N 41°10' E 010°26'1616.3
2015-Jun-29 15:33N 41°15' E 010°05'1616.4
2015-Jun-29 14:34N 41°19' E 009°44'1515.1
2015-Jun-29 13:34N 41°22' E 009°24'1614.5
2015-Jun-29 12:29N 41°17' E 009°04'6215.8
2015-Jun-29 08:33N 41°17' E 007°42'2216.1
2015-Jun-29 07:11N 41°17' E 007°12'1016.0
2015-Jun-29 06:33N 41°17' E 006°59'1615.9
2015-Jun-29 05:33N 41°17' E 006°38'1616.0
2015-Jun-29 04:33N 41°17' E 006°16'1616.2
2015-Jun-29 03:34N 41°16' E 005°55'1616.1
2015-Jun-29 02:34N 41°16' E 005°33'4916.2
2015-Jun-28 23:33N 41°16' E 004°29'1616.0
2015-Jun-28 22:33N 41°16' E 004°07'1615.8
2015-Jun-28 21:33N 41°16' E 003°46'1615.8
2015-Jun-28 20:33N 41°16' E 003°25'1515.5
2015-Jun-28 19:34N 41°16' E 003°05'1515.1
2015-Jun-28 18:33N 41°16' E 002°45'1515.4
2015-Jun-28 17:33N 41°16' E 002°24'1111.5
2015-Jun-28 16:33N 41°20' E 002°10'2 1.4
2015-Jun-28 15:08N 41°22' E 002°11'0 0.0
2015-Jun-28 14:32N 41°22' E 002°11'0 0.0
2015-Jun-28 10:23N 41°22' E 002°11'0 0.0
2015-Jun-28 09:30N 41°22' E 002°11'0 0.0
2015-Jun-28 05:32N 41°22' E 002°11'0 0.0
2015-Jun-28 04:15N 41°22' E 002°11'0 0.0
2015-Jun-28 03:22N 41°22' E 002°11'0 0.0
2015-Jun-28 02:21N 41°22' E 002°11'3 4.2
2015-Jun-28 01:33N 41°18' E 002°10'1514.7
2015-Jun-28 00:33N 41°04' E 002°11'1616.3
2015-Jun-27 23:33N 40°47' E 002°12'1616.4
2015-Jun-27 22:33N 40°31' E 002°12'1616.3
2015-Jun-27 21:33N 40°15' E 002°12'1716.7
2015-Jun-27 20:33N 39°58' E 002°12'1717.3
2015-Jun-27 19:33N 39°41' E 002°13'1515.1
2015-Jun-27 18:33N 39°28' E 002°22'1211.9
2015-Jun-27 17:33N 39°30' E 002°38'3 2.7
2015-Jun-27 16:31N 39°33' E 002°38'0 0.0
2015-Jun-27 15:32N 39°33' E 002°38'0 0.0
2015-Jun-27 14:32N 39°33' E 002°38'0 0.0
2015-Jun-27 13:30N 39°33' E 002°38'0 0.1
2015-Jun-27 11:33N 39°33' E 002°38'1211.9
2015-Jun-27 10:33N 39°25' E 002°27'1515.4
2015-Jun-27 09:34N 39°38' E 002°16'1817.9
2015-Jun-27 08:33N 39°52' E 002°30'1818.1
2015-Jun-27 07:33N 40°06' E 002°45'1818.2
2015-Jun-27 06:33N 40°19' E 003°02'1919.0
2015-Jun-27 05:33N 40°32' E 003°20'1918.9
2015-Jun-27 04:33N 40°45' E 003°38'1918.7
2015-Jun-27 03:33N 40°58' E 003°55'1918.4
2015-Jun-27 02:33N 41°11' E 004°13'1818.5
2015-Jun-27 01:33N 41°24' E 004°30'1918.7
2015-Jun-27 00:33N 41°37' E 004°48'1818.4
2015-Jun-26 23:33N 41°50' E 005°05'1918.6
2015-Jun-26 22:33N 42°03' E 005°23'1818.3
2015-Jun-26 21:33N 42°16' E 005°41'1818.4
2015-Jun-26 20:33N 42°29' E 005°59'1817.5
2015-Jun-26 19:33N 42°41' E 006°16'1616.2
2015-Jun-26 18:33N 42°52' E 006°31'1616.3
2015-Jun-26 17:33N 43°05' E 006°46'1716.6
2015-Jun-26 16:33N 43°19' E 006°57'13 6.4
2015-Jun-26 14:28N 43°32' E 007°01'0 0.0
2015-Jun-26 13:28N 43°32' E 007°01'0 0.0
2015-Jun-26 12:29N 43°32' E 007°01'0 0.0
2015-Jun-26 11:30N 43°32' E 007°01'0 0.0
2015-Jun-26 10:30N 43°32' E 007°01'0 0.0
2015-Jun-26 09:25N 43°32' E 007°01'0 0.0
2015-Jun-26 08:32N 43°32' E 007°01'0 0.0
2015-Jun-26 07:26N 43°32' E 007°01'0 0.1
2015-Jun-26 06:28N 43°32' E 007°01'0 0.0
2015-Jun-26 05:31N 43°32' E 007°01'0 0.1
2015-Jun-26 04:34N 43°32' E 007°01'5 5.0
2015-Jun-26 03:34N 43°28' E 007°05'1312.8
2015-Jun-26 02:34N 43°28' E 007°22'  
Track history (hours):
 
Tides and Currents Weather Stations Pressure Air Temp Water Temp Dewpoint Dewpoint Depression Visibility Wind Speed Wind Dir Waves Ship Positions

Norwegian Epic

Last reported at 2015-Jul-06 02:34 UTC. Time now 2015-Jul-06 02:52 UTC.
Position N 41°16' E 005°32'.

Length 329 m; draft 9.1 m.

Type: Passenger vessel. MMSI: 311018500.

Date/timePositionNaut miles runAvg speedWind from/ knotsBaromVisibWave heightAir tempDewpointWater temp
2015-Jul-06 02:34N 41°16' E 005°32'1616.4
2015-Jul-06 01:34N 41°16' E 005°10'1816.4
2015-Jul-06 00:27N 41°16' E 004°46'1516.3
2015-Jul-05 23:31N 41°16' E 004°26'1516.0
2015-Jul-05 22:33N 41°16' E 004°06'1515.5
2015-Jul-05 21:33N 41°16' E 003°45'1515.3
2015-Jul-05 20:33N 41°16' E 003°24'1514.8
2015-Jul-05 19:33N 41°16' E 003°05'1514.9
2015-Jul-05 18:33N 41°16' E 002°45'1515.2
2015-Jul-05 17:33N 41°15' E 002°25'1211.9
2015-Jul-05 16:33N 41°19' E 002°10'2 1.8
2015-Jul-05 15:14N 41°22' E 002°11'0 0.0
2015-Jul-05 12:28N 41°22' E 002°11'0 0.0
2015-Jul-05 11:29N 41°22' E 002°11'0 0.0
2015-Jul-05 10:18N 41°22' E 002°11'0 0.0
2015-Jul-05 09:30N 41°22' E 002°11'0 0.0
2015-Jul-05 08:31N 41°22' E 002°11'0 0.0
2015-Jul-05 07:32N 41°22' E 002°11'0 0.0
2015-Jul-05 06:32N 41°22' E 002°11'0 0.0
2015-Jul-05 05:33N 41°22' E 002°11'0 0.0
2015-Jul-05 04:04N 41°22' E 002°11'0 0.0
2015-Jul-05 03:28N 41°22' E 002°11'0 0.0
2015-Jul-05 02:24N 41°22' E 002°11'4 4.6
2015-Jul-05 01:33N 41°18' E 002°11'1414.0
2015-Jul-05 00:33N 41°04' E 002°11'1515.3
2015-Jul-04 23:33N 40°49' E 002°12'1615.7
2015-Jul-04 22:33N 40°33' E 002°12'1616.1
2015-Jul-04 21:33N 40°17' E 002°13'1616.1
2015-Jul-04 20:33N 40°01' E 002°12'1616.3
2015-Jul-04 19:33N 39°44' E 002°13'1515.4
2015-Jul-04 18:33N 39°30' E 002°19'1312.8
2015-Jul-04 17:33N 39°28' E 002°35'6 6.1
2015-Jul-04 16:33N 39°33' E 002°38'0 0.0
2015-Jul-04 15:31N 39°33' E 002°38'0 0.0
2015-Jul-04 14:32N 39°33' E 002°38'0 0.0
2015-Jul-04 13:32N 39°33' E 002°38'0 0.0
2015-Jul-04 12:33N 39°33' E 002°38'0 0.0
2015-Jul-04 11:33N 39°33' E 002°38'8 8.1
2015-Jul-04 10:33N 39°26' E 002°34'1414.3
2015-Jul-04 09:33N 39°32' E 002°17'1514.6
2015-Jul-04 08:33N 39°45' E 002°23'1615.9
2015-Jul-04 07:33N 39°57' E 002°36'1616.4
2015-Jul-04 06:33N 40°10' E 002°51'1717.4
2015-Jul-04 05:33N 40°22' E 003°07'2019.8
2015-Jul-04 04:33N 40°36' E 003°25'2019.9
2015-Jul-04 03:33N 40°50' E 003°44'2019.8
2015-Jul-04 02:33N 41°04' E 004°03'1919.3
2015-Jul-04 01:33N 41°17' E 004°21'1919.3
2015-Jul-04 00:33N 41°31' E 004°39'1919.3
2015-Jul-03 23:33N 41°44' E 004°58'1918.8
2015-Jul-03 22:33N 41°57' E 005°15'1918.7
2015-Jul-03 21:33N 42°11' E 005°34'1918.7
2015-Jul-03 20:33N 42°24' E 005°51'1918.6
2015-Jul-03 19:33N 42°37' E 006°09'1918.8
2015-Jul-03 18:33N 42°50' E 006°27'1918.8
2015-Jul-03 17:33N 43°04' E 006°45'1818.5
2015-Jul-03 16:34N 43°20' E 006°57'1312.1
2015-Jul-03 15:31N 43°32' E 007°01'0 0.1
2015-Jul-03 14:32N 43°32' E 007°01'0 0.0
2015-Jul-03 13:32N 43°32' E 007°01'0 0.0
2015-Jul-03 12:27N 43°32' E 007°01'0 0.0
2015-Jul-03 11:30N 43°32' E 007°01'0 0.0
2015-Jul-03 10:31N 43°32' E 007°01'0 0.0
2015-Jul-03 09:29N 43°32' E 007°01'0 0.0
2015-Jul-03 08:26N 43°32' E 007°01'0 0.0
2015-Jul-03 07:30N 43°32' E 007°01'0 0.0
2015-Jul-03 06:31N 43°32' E 007°01'0 0.0
2015-Jul-03 05:31N 43°32' E 007°01'0 0.0
2015-Jul-03 04:33N 43°32' E 007°01'6 5.6
2015-Jul-03 03:33N 43°28' E 007°06'1312.9
2015-Jul-03 02:34N 43°28' E 007°24'1312.9
2015-Jul-03 01:33N 43°29' E 007°42'1312.9
2015-Jul-03 00:33N 43°29' E 007°59'1312.9
2015-Jul-02 23:33N 43°30' E 008°17'1312.6
2015-Jul-02 22:33N 43°31' E 008°35'1413.9
2015-Jul-02 21:34N 43°31' E 008°54'1615.5
2015-Jul-02 20:34N 43°31' E 009°15'1515.3
2015-Jul-02 19:34N 43°32' E 009°36'1515.0
2015-Jul-02 18:34N 43°31' E 009°57'1312.7
2015-Jul-02 17:33N 43°31' E 010°14'3 2.7
2015-Jul-02 16:31N 43°33' E 010°18'0 0.0
2015-Jul-02 15:31N 43°33' E 010°18'0 0.0
2015-Jul-02 14:29N 43°33' E 010°18'0 0.0
2015-Jul-02 13:33N 43°33' E 010°18'0 0.0
2015-Jul-02 12:33N 43°33' E 010°18'0 0.0
2015-Jul-02 11:31N 43°33' E 010°18'0 0.0
2015-Jul-02 10:31N 43°33' E 010°18'0 0.0
2015-Jul-02 09:32N 43°33' E 010°18'0 0.0
2015-Jul-02 08:33N 43°33' E 010°18'0 0.0
2015-Jul-02 07:33N 43°33' E 010°18'0 0.0
2015-Jul-02 06:31N 43°33' E 010°18'0 0.0
2015-Jul-02 05:32N 43°33' E 010°18'0 0.5
2015-Jul-02 04:33N 43°33' E 010°17'8 8.0
2015-Jul-02 03:34N 43°26' E 010°11'1615.9
2015-Jul-02 02:33N 43°11' E 010°05'1615.5
2015-Jul-02 01:33N 42°56' E 010°00'1615.6
2015-Jul-02 00:34N 42°41' E 009°55'1615.6
2015-Jul-01 23:34N 42°25' E 009°55'1413.7
2015-Jul-01 22:33N 42°14' E 010°07'1615.7
2015-Jul-01 21:32N 42°09' E 010°27'1515.7
2015-Jul-01 20:33N 42°04' E 010°47'1515.3
2015-Jul-01 19:33N 42°01' E 011°07'1615.5
2015-Jul-01 18:33N 42°02' E 011°27'1414.2
2015-Jul-01 17:33N 42°06' E 011°46'1 0.4
2015-Jul-01 15:33N 42°06' E 011°47'0 0.0
2015-Jul-01 13:25N 42°06' E 011°47'0 0.0
2015-Jul-01 12:26N 42°06' E 011°47'0 0.0
2015-Jul-01 11:33N 42°06' E 011°47'0 0.0
2015-Jul-01 10:33N 42°06' E 011°47'0 0.0
2015-Jul-01 09:31N 42°06' E 011°47'0 0.0
2015-Jul-01 08:31N 42°06' E 011°47'0 0.0
2015-Jul-01 07:29N 42°06' E 011°47'0 0.0
2015-Jul-01 05:33N 42°06' E 011°47'0 0.0
2015-Jul-01 04:19N 42°06' E 011°47'0 0.2
2015-Jul-01 03:30N 42°06' E 011°47'6 5.8
2015-Jul-01 02:32N 42°01' E 011°44'1817.1
2015-Jul-01 01:29N 41°45' E 011°56'1617.1
2015-Jul-01 00:34N 41°32' E 012°07'1716.8
2015-Jun-30 23:33N 41°17' E 012°18'1716.7
2015-Jun-30 22:33N 41°03' E 012°29'1616.3
2015-Jun-30 21:33N 40°51' E 012°44'1515.3
2015-Jun-30 20:34N 40°42' E 013°01'1615.5
2015-Jun-30 19:33N 40°41' E 013°21'1515.1
2015-Jun-30 18:32N 40°39' E 013°41'1514.9
2015-Jun-30 17:33N 40°38' E 014°00'1514.5
2015-Jun-30 16:34N 40°47' E 014°15'3 0.3
2015-Jun-30 04:29N 40°50' E 014°16'5 5.8
2015-Jun-30 03:33N 40°45' E 014°14'1414.4
2015-Jun-30 02:33N 40°38' E 013°57'1615.5
2015-Jun-30 01:33N 40°39' E 013°37'1615.7
2015-Jun-30 00:33N 40°41' E 013°16'1616.4
2015-Jun-29 23:34N 40°41' E 012°55'1716.7
2015-Jun-29 22:33N 40°45' E 012°33'1717.1
2015-Jun-29 21:33N 40°50' E 012°11'1916.7
2015-Jun-29 20:26N 40°54' E 011°47'1516.5
2015-Jun-29 19:33N 40°58' E 011°29'1616.3
2015-Jun-29 18:33N 41°02' E 011°08'1716.5
2015-Jun-29 17:33N 41°06' E 010°47'1616.4
2015-Jun-29 16:33N 41°10' E 010°26'1616.3
2015-Jun-29 15:33N 41°15' E 010°05'1616.4
2015-Jun-29 14:34N 41°19' E 009°44'1515.1
2015-Jun-29 13:34N 41°22' E 009°24'1614.5
2015-Jun-29 12:29N 41°17' E 009°04'6215.8
2015-Jun-29 08:33N 41°17' E 007°42'2216.1
2015-Jun-29 07:11N 41°17' E 007°12'1016.0
2015-Jun-29 06:33N 41°17' E 006°59'1615.9
2015-Jun-29 05:33N 41°17' E 006°38'1616.0
2015-Jun-29 04:33N 41°17' E 006°16'1616.2
2015-Jun-29 03:34N 41°16' E 005°55'1616.1
2015-Jun-29 02:34N 41°16' E 005°33'4916.2
2015-Jun-28 23:33N 41°16' E 004°29'1616.0
2015-Jun-28 22:33N 41°16' E 004°07'1615.8
2015-Jun-28 21:33N 41°16' E 003°46'1615.8
2015-Jun-28 20:33N 41°16' E 003°25'1515.5
2015-Jun-28 19:34N 41°16' E 003°05'1515.1
2015-Jun-28 18:33N 41°16' E 002°45'1515.4
2015-Jun-28 17:33N 41°16' E 002°24'1111.5
2015-Jun-28 16:33N 41°20' E 002°10'2 1.4
2015-Jun-28 15:08N 41°22' E 002°11'0 0.0
2015-Jun-28 14:32N 41°22' E 002°11'0 0.0
2015-Jun-28 10:23N 41°22' E 002°11'0 0.0
2015-Jun-28 09:30N 41°22' E 002°11'0 0.0
2015-Jun-28 05:32N 41°22' E 002°11'0 0.0
2015-Jun-28 04:15N 41°22' E 002°11'0 0.0
2015-Jun-28 03:22N 41°22' E 002°11'0 0.0
2015-Jun-28 02:21N 41°22' E 002°11'3 4.2
2015-Jun-28 01:33N 41°18' E 002°10'1514.7
2015-Jun-28 00:33N 41°04' E 002°11'1616.3
2015-Jun-27 23:33N 40°47' E 002°12'1616.4
2015-Jun-27 22:33N 40°31' E 002°12'1616.3
2015-Jun-27 21:33N 40°15' E 002°12'1716.7
2015-Jun-27 20:33N 39°58' E 002°12'1717.3
2015-Jun-27 19:33N 39°41' E 002°13'1515.1
2015-Jun-27 18:33N 39°28' E 002°22'1211.9
2015-Jun-27 17:33N 39°30' E 002°38'3 2.7
2015-Jun-27 16:31N 39°33' E 002°38'0 0.0
2015-Jun-27 15:32N 39°33' E 002°38'0 0.0
2015-Jun-27 14:32N 39°33' E 002°38'0 0.0
2015-Jun-27 13:30N 39°33' E 002°38'0 0.1
2015-Jun-27 11:33N 39°33' E 002°38'1211.9
2015-Jun-27 10:33N 39°25' E 002°27'1515.4
2015-Jun-27 09:34N 39°38' E 002°16'1817.9
2015-Jun-27 08:33N 39°52' E 002°30'1818.1
2015-Jun-27 07:33N 40°06' E 002°45'1818.2
2015-Jun-27 06:33N 40°19' E 003°02'1919.0
2015-Jun-27 05:33N 40°32' E 003°20'1918.9
2015-Jun-27 04:33N 40°45' E 003°38'1918.7
2015-Jun-27 03:33N 40°58' E 003°55'1918.4
2015-Jun-27 02:33N 41°11' E 004°13'1818.5
2015-Jun-27 01:33N 41°24' E 004°30'1918.7
2015-Jun-27 00:33N 41°37' E 004°48'1818.4
2015-Jun-26 23:33N 41°50' E 005°05'1918.6
2015-Jun-26 22:33N 42°03' E 005°23'1818.3
2015-Jun-26 21:33N 42°16' E 005°41'1818.4
2015-Jun-26 20:33N 42°29' E 005°59'1817.5
2015-Jun-26 19:33N 42°41' E 006°16'1616.2
2015-Jun-26 18:33N 42°52' E 006°31'1616.3
2015-Jun-26 17:33N 43°05' E 006°46'1716.6
2015-Jun-26 16:33N 43°19' E 006°57'13 6.4
2015-Jun-26 14:28N 43°32' E 007°01'0 0.0
2015-Jun-26 13:28N 43°32' E 007°01'0 0.0
2015-Jun-26 12:29N 43°32' E 007°01'0 0.0
2015-Jun-26 11:30N 43°32' E 007°01'0 0.0
2015-Jun-26 10:30N 43°32' E 007°01'0 0.0
2015-Jun-26 09:25N 43°32' E 007°01'0 0.0
2015-Jun-26 08:32N 43°32' E 007°01'0 0.0
2015-Jun-26 07:26N 43°32' E 007°01'0 0.1
2015-Jun-26 06:28N 43°32' E 007°01'0 0.0
2015-Jun-26 05:31N 43°32' E 007°01'0 0.1
2015-Jun-26 04:34N 43°32' E 007°01'5 5.0
2015-Jun-26 03:34N 43°28' E 007°05'1312.8
2015-Jun-26 02:34N 43°28' E 007°22'  

Dump ship's entire track history